Niotaze, Kansas
Current Conditions -  °F | °C
As of 3:55 AM on Friday 24 Oct 2014 (Local Time) from KIDP Reporting Station
Haze Haze  
Wind Chill: 12°   Ceiling: Unl
Heat Index: 12°   Visibility: 4mi
Dew Point: 11°   Wind: 3mph
Humidity: 94%   Direction: 160°SSE
Pressure: 30.1"   Gusts: NA
Location:  37.07°N, 96.01°W
Report Text: KIDP 240855Z AUTO 16003KT 4SM BR SCT048 12/11 A3010 RMK AO2
Loading
Personal Weather Stations






























Interactive Weather Map
Tropical Storm Tracking
New forecast layout! Learn more

10-Day Weather Forecast

Advertisements
Track Severe Weather on mobile